Time;durP1;ratioP1;P1;durP2;ratioP2;P2;SDS_P1;SDS_P2;PMS_P1;PMS_P2;Temp;Humidity;BMP_temperature;BMP_pressure;BME280_temperature;BME280_humidity;BME280_pressure;Samples;Min_cycle;Max_cycle;Signal;HPM_P1;HPM_P2
2022/12/13 00:01:44;;;;;;;42.72;17.77;;;;;;;;;;5015754;28;91112;-61
2022/12/13 00:04:11;;;;;;;37.58;19.05;;;;;;;;;;5016398;28;89646;-62
2022/12/13 00:06:37;;;;;;;43.28;20.25;;;;;;;;;;5016097;28;89040;-61
2022/12/13 00:09:04;;;;;;;39.97;19.52;;;;;;;;;;5015840;28;89729;-61
2022/12/13 00:11:31;;;;;;;41.30;20.17;;;;;;;;;;5016383;28;90713;-62
2022/12/13 00:13:57;;;;;;;39.03;20.13;;;;;;;;;;5016237;28;89123;-62
2022/12/13 00:16:24;;;;;;;47.55;20.27;;;;;;;;;;5015657;28;90066;-62
2022/12/13 00:18:52;;;;;;;48.05;21.60;;;;;;;;;;5019534;28;91657;-62
2022/12/13 00:21:19;;;;;;;51.75;21.15;;;;;;;;;;5015737;28;91238;-62
2022/12/13 00:23:46;;;;;;;49.35;20.88;;;;;;;;;;5016017;28;89707;-62
2022/12/13 00:26:13;;;;;;;44.97;20.25;;;;;;;;;;5015749;28;89051;-62
2022/12/13 00:28:40;;;;;;;45.15;20.27;;;;;;;;;;5015809;28;90480;-62
2022/12/13 00:31:06;;;;;;;40.25;19.60;;;;;;;;;;5015984;28;90080;-62
2022/12/13 00:33:53;;;;;;;42.08;18.63;;;;;;;;;;5015820;28;89011;-62
2022/12/13 00:36:19;;;;;;;42.53;19.75;;;;;;;;;;5016134;28;91320;-62
2022/12/13 00:38:45;;;;;;;42.97;19.63;;;;;;;;;;5014673;28;90392;-62
2022/12/13 00:41:13;;;;;;;39.28;18.73;;;;;;;;;;5019072;28;90302;-62
2022/12/13 00:43:39;;;;;;;44.97;19.73;;;;;;;;;;5015539;28;89221;-61
2022/12/13 00:46:07;;;;;;;38.92;18.05;;;;;;;;;;5015533;28;90047;-62
2022/12/13 00:48:34;;;;;;;36.63;18.27;;;;;;;;;;5015453;28;90635;-61
2022/12/13 00:51:04;;;;;;;42.58;18.10;;;;;;;;;;5015517;28;89149;-61
2022/12/13 00:53:30;;;;;;;38.60;18.02;;;;;;;;;;5015392;28;89800;-62
2022/12/13 00:55:56;;;;;;;42.83;20.58;;;;;;;;;;5015747;28;92019;-61
2022/12/13 00:58:23;;;;;;;46.88;20.35;;;;;;;;;;5015606;28;90471;-62
2022/12/13 01:00:49;;;;;;;48.88;20.58;;;;;;;;;;5015729;28;89945;-61
2022/12/13 01:03:24;;;;;;;46.28;20.98;;;;;;;;;;5021194;28;90064;-61
2022/12/13 01:05:50;;;;;;;45.92;20.30;;;;;;;;;;5016511;28;89532;-61
2022/12/13 01:08:37;;;;;;;44.10;19.33;;;;;;;;;;4997791;28;92401;-62
2022/12/13 01:11:04;;;;;;;42.28;20.23;;;;;;;;;;4998521;28;89605;-61
2022/12/13 01:13:30;;;;;;;43.58;20.33;;;;;;;;;;4998914;28;89794;-62
2022/12/13 01:15:57;;;;;;;39.03;19.10;;;;;;;;;;5006381;28;93455;-61
2022/12/13 01:18:23;;;;;;;41.70;19.23;;;;;;;;;;5018396;28;89673;-62
2022/12/13 01:20:57;;;;;;;42.53;19.75;;;;;;;;;;5018726;28;89069;-62
2022/12/13 01:23:23;;;;;;;36.70;18.38;;;;;;;;;;5018439;28;89212;-62
2022/12/13 01:25:50;;;;;;;41.42;20.55;;;;;;;;;;5021825;28;90759;-62
2022/12/13 01:28:16;;;;;;;38.45;18.88;;;;;;;;;;5018810;28;90048;-61
2022/12/13 01:30:42;;;;;;;48.50;19.40;;;;;;;;;;5018612;28;89534;-62
2022/12/13 01:33:09;;;;;;;42.28;20.00;;;;;;;;;;5017067;28;89217;-62
2022/12/13 01:35:39;;;;;;;40.25;20.33;;;;;;;;;;5018102;28;90364;-63
2022/12/13 01:38:06;;;;;;;42.70;19.77;;;;;;;;;;5018426;28;89630;-62
2022/12/13 01:40:42;;;;;;;41.92;19.23;;;;;;;;;;5018465;28;89149;-61
2022/12/13 01:43:11;;;;;;;38.80;19.48;;;;;;;;;;5018358;28;90324;-61
2022/12/13 01:45:39;;;;;;;38.25;18.73;;;;;;;;;;5017818;28;89873;-62
2022/12/13 01:48:08;;;;;;;38.35;18.10;;;;;;;;;;5021547;28;88995;-62
2022/12/13 01:50:36;;;;;;;39.42;19.02;;;;;;;;;;5017963;28;89466;-62
2022/12/13 01:53:04;;;;;;;38.33;18.63;;;;;;;;;;5018777;28;89752;-62
2022/12/13 01:55:33;;;;;;;40.22;19.63;;;;;;;;;;5018227;28;89914;-62
2022/12/13 01:58:07;;;;;;;40.88;19.23;;;;;;;;;;5016923;28;89494;-61
2022/12/13 02:00:34;;;;;;;42.70;19.10;;;;;;;;;;5018062;28;89490;-62
2022/12/13 02:03:01;;;;;;;46.83;20.33;;;;;;;;;;5017546;28;90163;-61
2022/12/13 02:05:31;;;;;;;47.78;20.30;;;;;;;;;;5018291;28;91006;-61
2022/12/13 02:07:58;;;;;;;45.10;18.63;;;;;;;;;;5016418;28;88982;-62
2022/12/13 02:10:25;;;;;;;41.88;19.95;;;;;;;;;;5020745;28;90895;-62
2022/12/13 02:12:52;;;;;;;45.80;19.05;;;;;;;;;;5017479;28;88886;-61
2022/12/13 02:15:18;;;;;;;44.25;19.80;;;;;;;;;;5017538;28;90122;-61
2022/12/13 02:17:45;;;;;;;43.63;19.77;;;;;;;;;;5018081;28;89988;-61
2022/12/13 02:20:23;;;;;;;48.88;19.67;;;;;;;;;;5017890;28;88948;-62
2022/12/13 02:23:08;;;;;;;46.03;20.00;;;;;;;;;;5018100;28;93260;-62
2022/12/13 02:25:34;;;;;;;47.55;21.80;;;;;;;;;;5017389;28;89574;-62
2022/12/13 02:28:03;;;;;;;44.38;20.80;;;;;;;;;;5017821;28;90273;-62
2022/12/13 02:31:08;;;;;;;43.10;21.35;;;;;;;;;;5020984;28;92548;-62
2022/12/13 02:34:03;;;;;;;44.78;20.05;;;;;;;;;;5017632;28;89031;-62
2022/12/13 02:36:40;;;;;;;45.28;20.17;;;;;;;;;;5011842;28;90230;-61
2022/12/13 02:39:09;;;;;;;44.20;20.05;;;;;;;;;;5017573;28;89981;-61
2022/12/13 02:41:42;;;;;;;45.45;18.20;;;;;;;;;;5017390;28;89400;-62
2022/12/13 02:44:08;;;;;;;37.65;18.48;;;;;;;;;;5016499;28;90294;-62
2022/12/13 02:46:51;;;;;;;35.85;18.33;;;;;;;;;;5017457;28;89126;-62
2022/12/13 02:49:19;;;;;;;47.88;19.60;;;;;;;;;;5017290;28;90204;-62
2022/12/13 02:51:46;;;;;;;42.55;18.50;;;;;;;;;;5017344;28;91093;-62
2022/12/13 02:54:12;;;;;;;38.17;19.67;;;;;;;;;;5020051;28;90012;-61
2022/12/13 02:56:38;;;;;;;39.47;18.13;;;;;;;;;;5017731;28;88892;-62
2022/12/13 02:59:09;;;;;;;52.25;19.60;;;;;;;;;;5016871;28;89166;-62
2022/12/13 03:01:41;;;;;;;42.47;19.77;;;;;;;;;;5016493;28;90742;-62
2022/12/13 03:04:26;;;;;;;41.20;19.70;;;;;;;;;;5017360;28;91201;-61
2022/12/13 03:06:58;;;;;;;43.78;19.45;;;;;;;;;;5009581;28;89399;-62
2022/12/13 03:09:30;;;;;;;45.28;19.50;;;;;;;;;;4997208;28;88986;-61
2022/12/13 03:14:48;;;;;;;46.20;20.02;;;;;;;;;;4997053;28;90425;-62
2022/12/13 03:17:15;;;;;;;36.75;19.73;;;;;;;;;;5018306;28;89856;-61
2022/12/13 03:19:42;;;;;;;39.80;19.70;;;;;;;;;;5016825;28;89422;-61
2022/12/13 03:22:08;;;;;;;47.42;20.15;;;;;;;;;;5017005;28;89319;-61
2022/12/13 03:24:35;;;;;;;47.85;20.00;;;;;;;;;;5014498;28;90064;-62
2022/12/13 03:27:01;;;;;;;39.85;19.55;;;;;;;;;;5016749;28;89793;-61
2022/12/13 03:29:27;;;;;;;44.25;20.20;;;;;;;;;;5017323;28;89041;-61
2022/12/13 03:31:53;;;;;;;38.90;20.42;;;;;;;;;;5016953;28;90276;-62
2022/12/13 03:34:20;;;;;;;50.25;20.58;;;;;;;;;;5016949;28;90626;-61
2022/12/13 03:36:48;;;;;;;45.85;20.13;;;;;;;;;;5016685;28;89553;-61
2022/12/13 03:39:14;;;;;;;42.67;19.73;;;;;;;;;;5019273;28;90051;-61
2022/12/13 03:41:41;;;;;;;38.15;18.83;;;;;;;;;;5016057;28;89804;-62
2022/12/13 03:44:07;;;;;;;38.58;18.58;;;;;;;;;;5016140;28;90236;-61
2022/12/13 03:46:33;;;;;;;42.50;18.83;;;;;;;;;;5016159;28;90012;-61
2022/12/13 03:49:00;;;;;;;44.75;20.13;;;;;;;;;;5016357;28;88886;-61
2022/12/13 03:51:26;;;;;;;45.83;20.73;;;;;;;;;;5016385;28;90154;-62
2022/12/13 03:53:53;;;;;;;47.35;21.55;;;;;;;;;;5016593;28;90500;-61
2022/12/13 03:56:19;;;;;;;55.42;21.38;;;;;;;;;;5014739;28;89329;-62
2022/12/13 03:58:45;;;;;;;53.20;20.80;;;;;;;;;;5016331;28;90277;-62
2022/12/13 04:01:13;;;;;;;41.22;21.02;;;;;;;;;;5017676;28;89562;-62
2022/12/13 04:03:40;;;;;;;42.10;20.05;;;;;;;;;;5015904;28;90023;-61
2022/12/13 04:06:07;;;;;;;44.40;20.40;;;;;;;;;;5015860;28;89617;-61
2022/12/13 04:08:34;;;;;;;41.42;21.00;;;;;;;;;;5016400;28;90446;-61
2022/12/13 04:13:31;;;;;;;50.75;21.17;;;;;;;;;;5016095;28;90240;-61
2022/12/13 04:13:46;;;;;;;39.22;19.58;;;;;;;;;;5016323;28;89744;-61
2022/12/13 04:16:13;;;;;;;40.80;20.17;;;;;;;;;;5015893;28;88999;-61
2022/12/13 04:18:39;;;;;;;40.08;19.23;;;;;;;;;;5016062;28;90497;-62
2022/12/13 04:21:05;;;;;;;41.78;20.02;;;;;;;;;;5014710;28;89430;-61
2022/12/13 04:23:31;;;;;;;49.03;18.08;;;;;;;;;;5019348;28;88968;-61
2022/12/13 04:25:58;;;;;;;41.40;17.80;;;;;;;;;;5015540;28;89493;-61
2022/12/13 04:28:24;;;;;;;38.80;18.20;;;;;;;;;;5015930;28;89246;-62
2022/12/13 04:30:51;;;;;;;43.33;17.05;;;;;;;;;;5015301;28;89817;-61
2022/12/13 04:33:20;;;;;;;37.72;17.25;;;;;;;;;;5015990;28;91087;-61
2022/12/13 04:35:46;;;;;;;38.65;17.48;;;;;;;;;;5016478;28;88832;-61
2022/12/13 04:38:12;;;;;;;34.35;15.38;;;;;;;;;;5019532;28;90234;-62
2022/12/13 04:40:39;;;;;;;41.35;18.25;;;;;;;;;;5019528;28;88893;-62
2022/12/13 04:43:05;;;;;;;34.92;16.58;;;;;;;;;;5022684;28;89023;-61
2022/12/13 04:45:31;;;;;;;46.30;17.95;;;;;;;;;;5019289;28;89965;-61
2022/12/13 04:47:58;;;;;;;40.05;18.20;;;;;;;;;;5019560;28;89119;-61
2022/12/13 04:50:24;;;;;;;37.88;17.45;;;;;;;;;;5019062;28;90224;-61
2022/12/13 04:52:50;;;;;;;39.35;19.13;;;;;;;;;;5019200;28;89679;-62
2022/12/13 04:55:16;;;;;;;41.00;18.45;;;;;;;;;;5019083;28;90367;-62
2022/12/13 04:57:43;;;;;;;43.63;17.92;;;;;;;;;;5019351;28;90063;-62
2022/12/13 05:00:11;;;;;;;39.95;18.60;;;;;;;;;;5018887;28;89782;-61
2022/12/13 05:02:37;;;;;;;38.50;18.23;;;;;;;;;;5018891;28;88956;-61
2022/12/13 05:05:04;;;;;;;42.00;19.52;;;;;;;;;;5021904;28;90638;-61
2022/12/13 05:07:30;;;;;;;39.35;19.20;;;;;;;;;;5015502;28;89504;-61
2022/12/13 05:09:56;;;;;;;41.67;18.77;;;;;;;;;;4999813;28;89005;-62
2022/12/13 05:12:23;;;;;;;39.35;19.20;;;;;;;;;;4999123;28;89889;-62
2022/12/13 05:14:50;;;;;;;44.08;18.75;;;;;;;;;;4997552;28;89046;-62
2022/12/13 05:17:16;;;;;;;40.80;18.58;;;;;;;;;;5018287;28;90295;-62
2022/12/13 05:19:43;;;;;;;41.92;18.02;;;;;;;;;;5018569;28;89628;-62
2022/12/13 05:22:14;;;;;;;46.00;18.98;;;;;;;;;;5018463;28;88984;-62
2022/12/13 05:24:46;;;;;;;36.05;17.60;;;;;;;;;;5018456;28;90239;-62
2022/12/13 05:27:12;;;;;;;41.88;17.95;;;;;;;;;;5020376;28;89251;-61
2022/12/13 05:29:52;;;;;;;48.67;19.20;;;;;;;;;;5019113;28;91262;-62
2022/12/13 05:32:27;;;;;;;56.60;19.48;;;;;;;;;;5018615;28;90749;-63
2022/12/13 05:34:54;;;;;;;41.58;19.33;;;;;;;;;;5015882;28;93760;-62
2022/12/13 05:37:20;;;;;;;44.30;19.42;;;;;;;;;;5016356;28;91652;-61
2022/12/13 05:39:46;;;;;;;37.67;18.02;;;;;;;;;;5016116;28;92448;-62
2022/12/13 05:42:12;;;;;;;47.83;19.20;;;;;;;;;;5015779;28;94721;-62
2022/12/13 05:44:38;;;;;;;38.92;18.33;;;;;;;;;;5014173;28;94802;-62
2022/12/13 05:47:05;;;;;;;46.53;18.00;;;;;;;;;;5014435;28;95655;-62
2022/12/13 05:49:31;;;;;;;39.53;18.40;;;;;;;;;;5018229;28;94137;-62
2022/12/13 05:51:57;;;;;;;44.88;19.20;;;;;;;;;;5015601;28;93162;-62
2022/12/13 05:54:24;;;;;;;49.10;18.15;;;;;;;;;;5013802;28;92645;-62
2022/12/13 05:56:50;;;;;;;36.75;18.38;;;;;;;;;;5015337;28;92537;-62
2022/12/13 05:59:16;;;;;;;32.42;16.58;;;;;;;;;;5015746;28;94259;-62
2022/12/13 06:01:42;;;;;;;32.13;17.27;;;;;;;;;;5015126;28;91940;-62
2022/12/13 06:04:09;;;;;;;34.38;16.25;;;;;;;;;;5015258;28;92576;-62
2022/12/13 06:06:36;;;;;;;36.70;17.85;;;;;;;;;;5013993;28;92405;-62
2022/12/13 06:09:02;;;;;;;36.17;17.27;;;;;;;;;;5013407;28;95877;-62
2022/12/13 06:11:29;;;;;;;36.47;16.58;;;;;;;;;;5018074;28;92511;-62
2022/12/13 06:13:57;;;;;;;34.80;16.27;;;;;;;;;;5015037;28;93499;-62
2022/12/13 06:16:26;;;;;;;37.13;17.67;;;;;;;;;;5015223;28;92506;-62
2022/12/13 06:18:54;;;;;;;40.67;18.17;;;;;;;;;;5015286;28;92377;-63
2022/12/13 06:21:28;;;;;;;40.53;18.35;;;;;;;;;;5014968;28;93448;-62
2022/12/13 06:24:08;;;;;;;45.83;17.60;;;;;;;;;;5014033;28;92479;-62
2022/12/13 06:26:35;;;;;;;42.47;19.63;;;;;;;;;;5015220;28;93410;-62
2022/12/13 06:29:01;;;;;;;37.25;18.30;;;;;;;;;;5015133;28;93438;-62
2022/12/13 06:31:27;;;;;;;38.78;17.73;;;;;;;;;;5013764;28;92400;-62
2022/12/13 06:33:53;;;;;;;43.75;18.55;;;;;;;;;;5016864;28;94772;-62
2022/12/13 06:36:20;;;;;;;41.33;18.70;;;;;;;;;;5014621;28;92706;-62
2022/12/13 06:38:46;;;;;;;33.17;16.33;;;;;;;;;;5014913;28;93205;-62
2022/12/13 06:41:13;;;;;;;37.05;17.55;;;;;;;;;;5014840;28;93306;-62
2022/12/13 06:43:40;;;;;;;37.10;16.90;;;;;;;;;;5014892;28;92468;-62
2022/12/13 06:46:07;;;;;;;37.35;16.83;;;;;;;;;;5014522;28;93204;-62
2022/12/13 06:48:34;;;;;;;42.50;17.42;;;;;;;;;;5013638;28;96273;-61
2022/12/13 06:51:01;;;;;;;35.72;17.20;;;;;;;;;;5015110;28;91717;-62
2022/12/13 06:53:27;;;;;;;35.90;16.38;;;;;;;;;;5017858;28;93523;-62
2022/12/13 06:55:54;;;;;;;41.35;18.38;;;;;;;;;;5014718;28;94325;-62
2022/12/13 06:58:20;;;;;;;38.65;18.60;;;;;;;;;;5013496;28;94797;-62
2022/12/13 07:00:47;;;;;;;39.83;16.95;;;;;;;;;;5014545;28;93339;-62
2022/12/13 07:03:14;;;;;;;38.75;17.52;;;;;;;;;;5013914;28;92446;-62
2022/12/13 07:05:41;;;;;;;38.40;17.40;;;;;;;;;;5014138;28;93319;-62
2022/12/13 07:08:08;;;;;;;46.40;20.00;;;;;;;;;;4994202;28;93413;-62
2022/12/13 07:10:37;;;;;;;38.78;16.85;;;;;;;;;;5007980;28;92479;-62
2022/12/13 07:13:03;;;;;;;34.50;17.10;;;;;;;;;;4994145;28;93120;-62
2022/12/13 07:15:31;;;;;;;44.13;17.75;;;;;;;;;;5002492;28;93698;-62
2022/12/13 07:17:58;;;;;;;40.72;17.40;;;;;;;;;;5014146;28;92485;-62
2022/12/13 07:20:24;;;;;;;36.72;17.10;;;;;;;;;;5014273;28;94791;-62
2022/12/13 07:22:55;;;;;;;37.10;17.50;;;;;;;;;;5012402;28;94902;-63
2022/12/13 07:25:24;;;;;;;35.22;18.08;;;;;;;;;;5013803;28;95887;-62
2022/12/13 07:28:04;;;;;;;43.72;18.70;;;;;;;;;;5012364;28;93372;-62
2022/12/13 07:30:37;;;;;;;48.88;18.27;;;;;;;;;;5014185;28;92393;-62
2022/12/13 07:33:07;;;;;;;45.45;18.45;;;;;;;;;;5014479;28;93000;-62
2022/12/13 07:35:33;;;;;;;38.65;18.15;;;;;;;;;;5013728;28;94482;-62
2022/12/13 07:38:03;;;;;;;42.75;18.38;;;;;;;;;;5016794;28;92422;-62
2022/12/13 07:40:29;;;;;;;48.97;19.83;;;;;;;;;;5014209;28;93192;-62
2022/12/13 07:42:56;;;;;;;32.83;17.63;;;;;;;;;;5013707;28;92446;-62
2022/12/13 07:45:22;;;;;;;40.38;19.15;;;;;;;;;;5013794;28;93233;-62
2022/12/13 07:47:48;;;;;;;39.38;18.60;;;;;;;;;;5011787;28;95984;-62
2022/12/13 07:50:15;;;;;;;41.05;18.60;;;;;;;;;;5013294;28;92486;-62
2022/12/13 07:52:50;;;;;;;43.72;17.98;;;;;;;;;;5013832;28;93383;-63
2022/12/13 07:55:17;;;;;;;50.35;18.73;;;;;;;;;;5013908;28;94790;-62
2022/12/13 07:57:48;;;;;;;38.85;17.92;;;;;;;;;;5013903;28;92398;-62
2022/12/13 08:00:14;;;;;;;38.03;18.67;;;;;;;;;;5014037;28;93188;-62
2022/12/13 08:02:41;;;;;;;39.88;18.05;;;;;;;;;;5000306;28;92739;-62
2022/12/13 08:05:07;;;;;;;42.28;18.65;;;;;;;;;;5014155;28;93180;-62
2022/12/13 08:07:52;;;;;;;32.42;16.45;;;;;;;;;;4998337;28;93419;-62
2022/12/13 08:10:19;;;;;;;44.33;19.30;;;;;;;;;;4993038;28;92714;-62
2022/12/13 08:12:45;;;;;;;47.05;18.52;;;;;;;;;;4991880;28;94814;-62
2022/12/13 08:15:11;;;;;;;45.58;19.17;;;;;;;;;;4995426;28;93455;-62
2022/12/13 08:17:39;;;;;;;40.42;18.90;;;;;;;;;;5013030;28;92791;-62
2022/12/13 08:20:06;;;;;;;49.53;19.10;;;;;;;;;;4997007;28;93273;-62
2022/12/13 08:22:32;;;;;;;40.72;18.90;;;;;;;;;;4996518;28;94477;-62
2022/12/13 08:25:01;;;;;;;46.58;19.17;;;;;;;;;;4993286;28;93471;-62
2022/12/13 08:27:27;;;;;;;43.72;19.70;;;;;;;;;;4992740;28;93323;-62
2022/12/13 08:29:54;;;;;;;43.63;19.77;;;;;;;;;;4994192;28;92092;-62
2022/12/13 08:32:20;;;;;;;45.35;20.42;;;;;;;;;;4993434;28;92510;-62
2022/12/13 08:34:46;;;;;;;47.75;19.67;;;;;;;;;;4993324;28;93388;-62
2022/12/13 08:37:13;;;;;;;36.90;18.88;;;;;;;;;;4991282;28;94809;-62
2022/12/13 08:39:39;;;;;;;45.80;18.77;;;;;;;;;;4991669;28;95583;-62
2022/12/13 08:42:09;;;;;;;47.05;18.85;;;;;;;;;;4992675;28;93820;-62
2022/12/13 08:44:47;;;;;;;58.17;19.83;;;;;;;;;;4996208;28;92345;-62
2022/12/13 08:47:13;;;;;;;37.47;18.70;;;;;;;;;;5010501;28;94159;-61
2022/12/13 08:49:50;;;;;;;40.95;20.15;;;;;;;;;;5013181;28;92462;-62
2022/12/13 08:52:18;;;;;;;43.45;20.45;;;;;;;;;;5013307;28;94404;-62
2022/12/13 08:54:44;;;;;;;51.92;20.90;;;;;;;;;;5011485;28;92750;-62
2022/12/13 08:57:11;;;;;;;55.20;21.70;;;;;;;;;;4992670;28;93493;-62
2022/12/13 08:59:37;;;;;;;52.08;22.30;;;;;;;;;;4991501;28;93169;-61
2022/12/13 09:02:04;;;;;;;49.47;21.48;;;;;;;;;;4990559;28;96030;-62
2022/12/13 09:04:30;;;;;;;51.95;22.58;;;;;;;;;;4996098;28;92689;-62
2022/12/13 09:06:58;;;;;;;51.75;22.05;;;;;;;;;;4992769;28;93547;-62
2022/12/13 09:09:27;;;;;;;62.33;23.25;;;;;;;;;;4992622;28;92784;-62
2022/12/13 09:11:53;;;;;;;54.08;23.05;;;;;;;;;;4992617;28;93224;-62
2022/12/13 09:14:25;;;;;;;67.25;22.65;;;;;;;;;;4992388;28;93403;-62
2022/12/13 09:16:59;;;;;;;58.30;22.30;;;;;;;;;;5009383;28;92513;-62
2022/12/13 09:19:28;;;;;;;54.05;22.63;;;;;;;;;;5013301;28;94404;-62
2022/12/13 09:22:02;;;;;;;54.00;20.90;;;;;;;;;;5012927;28;94551;-61
2022/12/13 09:24:29;;;;;;;49.58;21.35;;;;;;;;;;5015722;28;92440;-62
2022/12/13 09:27:02;;;;;;;60.72;22.75;;;;;;;;;;5016628;28;95059;-62
2022/12/13 09:29:35;;;;;;;53.38;23.35;;;;;;;;;;5015937;28;92457;-62
2022/12/13 09:32:01;;;;;;;53.08;24.08;;;;;;;;;;5014931;28;94626;-62
2022/12/13 09:34:28;;;;;;;60.92;25.52;;;;;;;;;;5015590;28;93329;-62
2022/12/13 09:36:55;;;;;;;64.55;25.35;;;;;;;;;;5016069;28;92399;-62
2022/12/13 09:39:27;;;;;;;60.75;26.27;;;;;;;;;;5015971;28;94382;-62
2022/12/13 09:41:54;;;;;;;63.47;28.27;;;;;;;;;;5015439;28;93427;-62
2022/12/13 09:44:31;;;;;;;62.58;29.50;;;;;;;;;;5016289;28;91726;-62
2022/12/13 09:47:16;;;;;;;61.58;27.48;;;;;;;;;;5015857;28;92949;-62
2022/12/13 09:49:49;;;;;;;54.42;26.60;;;;;;;;;;5018368;28;93617;-62
2022/12/13 09:52:20;;;;;;;57.75;26.40;;;;;;;;;;5014125;28;95142;-62
2022/12/13 09:54:49;;;;;;;53.58;26.35;;;;;;;;;;5015285;28;93500;-62
2022/12/13 09:57:21;;;;;;;59.25;26.85;;;;;;;;;;5015256;28;92543;-62
2022/12/13 09:59:59;;;;;;;58.42;26.02;;;;;;;;;;5015731;28;94116;-62
2022/12/13 10:02:28;;;;;;;52.85;26.50;;;;;;;;;;5013838;28;93503;-62
2022/12/13 10:05:10;;;;;;;57.42;27.75;;;;;;;;;;5015228;28;92460;-62
2022/12/13 10:07:49;;;;;;;54.38;25.58;;;;;;;;;;5015307;28;93225;-62
2022/12/13 10:10:15;;;;;;;56.28;26.63;;;;;;;;;;5015564;28;92853;-62
2022/12/13 10:12:43;;;;;;;57.10;26.90;;;;;;;;;;5018698;28;92374;-62
2022/12/13 10:15:11;;;;;;;66.47;26.40;;;;;;;;;;5015031;28;93406;-62
2022/12/13 10:17:39;;;;;;;61.75;27.80;;;;;;;;;;5013891;28;94834;-62
2022/12/13 10:20:07;;;;;;;52.63;26.08;;;;;;;;;;5014842;28;95534;-62
2022/12/13 10:22:33;;;;;;;78.70;29.80;;;;;;;;;;5015327;28;94418;-62
2022/12/13 10:25:02;;;;;;;52.80;26.67;;;;;;;;;;5014898;28;92361;-62
2022/12/13 10:27:33;;;;;;;58.55;26.58;;;;;;;;;;5015397;28;92420;-62
2022/12/13 10:30:02;;;;;;;60.28;28.50;;;;;;;;;;5014673;28;93867;-62
2022/12/13 10:32:29;;;;;;;64.10;25.98;;;;;;;;;;5015108;28;92428;-62
2022/12/13 10:35:10;;;;;;;67.43;27.42;;;;;;;;;;5018174;28;93181;-62
2022/12/13 10:37:37;;;;;;;50.42;24.63;;;;;;;;;;5013968;28;92406;-62
2022/12/13 10:40:03;;;;;;;57.38;26.08;;;;;;;;;;5014748;28;93347;-62
2022/12/13 10:42:29;;;;;;;50.50;23.70;;;;;;;;;;5013118;28;96113;-62
2022/12/13 10:45:15;;;;;;;48.97;24.05;;;;;;;;;;5013179;28;93057;-62
2022/12/13 10:47:49;;;;;;;51.78;23.67;;;;;;;;;;5013572;28;93228;-62
2022/12/13 10:50:23;;;;;;;49.40;23.92;;;;;;;;;;5014311;28;93361;-62
2022/12/13 10:52:49;;;;;;;47.42;23.25;;;;;;;;;;5014680;28;92521;-62
2022/12/13 10:55:33;;;;;;;44.28;21.98;;;;;;;;;;5017950;28;94151;-62
2022/12/13 10:58:08;;;;;;;40.80;22.02;;;;;;;;;;5014614;28;92415;-63
2022/12/13 11:00:43;;;;;;;40.08;21.85;;;;;;;;;;5009898;28;91959;-62
2022/12/13 11:03:12;;;;;;;37.60;21.15;;;;;;;;;;5013764;28;94572;-62
2022/12/13 11:05:39;;;;;;;38.65;20.08;;;;;;;;;;5014314;28;92421;-62
2022/12/13 11:08:11;;;;;;;42.55;22.67;;;;;;;;;;5012349;28;95624;-63
2022/12/13 11:10:38;;;;;;;39.78;21.05;;;;;;;;;;5014185;28;92584;-63
2022/12/13 11:13:05;;;;;;;37.15;21.23;;;;;;;;;;5014586;28;92761;-63
2022/12/13 11:15:33;;;;;;;38.78;21.23;;;;;;;;;;5014490;28;94399;-62
2022/12/13 11:18:17;;;;;;;37.42;21.25;;;;;;;;;;5017099;28;93331;-62
2022/12/13 11:20:52;;;;;;;44.85;21.30;;;;;;;;;;5014566;28;94207;-63
2022/12/13 11:23:20;;;;;;;41.28;20.65;;;;;;;;;;5014352;28;94484;-62
2022/12/13 11:25:53;;;;;;;38.40;20.63;;;;;;;;;;5014969;28;91691;-63
2022/12/13 11:28:38;;;;;;;40.83;21.13;;;;;;;;;;5014047;28;92341;-62
2022/12/13 11:31:14;;;;;;;41.80;20.98;;;;;;;;;;5013775;28;93578;-62
2022/12/13 11:33:50;;;;;;;40.42;21.00;;;;;;;;;;5012807;28;94912;-63
2022/12/13 11:36:16;;;;;;;44.13;20.92;;;;;;;;;;5013749;28;95790;-63
2022/12/13 11:38:57;;;;;;;43.88;23.85;;;;;;;;;;5014166;28;93999;-63
2022/12/13 11:41:26;;;;;;;44.22;21.38;;;;;;;;;;5016621;28;92466;-62
2022/12/13 11:44:01;;;;;;;45.08;22.25;;;;;;;;;;5013770;28;93382;-62
2022/12/13 11:46:33;;;;;;;40.08;22.00;;;;;;;;;;5012854;28;92358;-63
2022/12/13 11:49:08;;;;;;;39.45;21.45;;;;;;;;;;5013741;28;93515;-63
2022/12/13 11:51:39;;;;;;;40.35;21.25;;;;;;;;;;5014026;28;92697;-63
2022/12/13 11:54:14;;;;;;;37.10;20.52;;;;;;;;;;5013615;28;92385;-63
2022/12/13 11:56:50;;;;;;;37.53;21.30;;;;;;;;;;5013722;28;94217;-63
2022/12/13 11:59:32;;;;;;;38.30;20.00;;;;;;;;;;5011742;28;95948;-63
2022/12/13 12:02:12;;;;;;;47.23;21.67;;;;;;;;;;5012798;28;94596;-63
2022/12/13 12:04:50;;;;;;;32.15;19.15;;;;;;;;;;5016503;28;93489;-63
2022/12/13 12:07:40;;;;;;;40.67;21.55;;;;;;;;;;5013541;28;92450;-63
2022/12/13 12:10:35;;;;;;;41.13;22.20;;;;;;;;;;5013294;28;92944;-63
2022/12/13 12:13:17;;;;;;;39.90;21.85;;;;;;;;;;5013511;28;93462;-63
2022/12/13 12:15:51;;;;;;;46.00;23.67;;;;;;;;;;5013276;28;92493;-62
2022/12/13 12:18:20;;;;;;;51.67;26.58;;;;;;;;;;5013629;28;93311;-62
2022/12/13 12:20:56;;;;;;;54.20;26.88;;;;;;;;;;5012918;28;93680;-63
2022/12/13 12:23:31;;;;;;;39.28;21.05;;;;;;;;;;5013339;28;92637;-63
2022/12/13 12:26:03;;;;;;;41.25;23.42;;;;;;;;;;5011987;28;94747;-63
2022/12/13 12:28:33;;;;;;;42.00;21.75;;;;;;;;;;5016330;28;93530;-63
2022/12/13 12:31:14;;;;;;;42.30;23.00;;;;;;;;;;5013391;28;94192;-63
2022/12/13 12:33:43;;;;;;;52.15;25.45;;;;;;;;;;5013247;28;94587;-63
2022/12/13 12:36:21;;;;;;;44.83;23.92;;;;;;;;;;5013128;28;92432;-62
2022/12/13 12:39:19;;;;;;;44.72;22.85;;;;;;;;;;5013074;28;92986;-63
2022/12/13 12:42:00;;;;;;;42.20;21.60;;;;;;;;;;5001314;28;93378;-63
2022/12/13 12:44:30;;;;;;;43.20;23.17;;;;;;;;;;5012830;28;91696;-63
2022/12/13 12:47:18;;;;;;;45.20;23.52;;;;;;;;;;5013269;28;92602;-63
2022/12/13 12:50:13;;;;;;;40.85;22.17;;;;;;;;;;5012685;28;93454;-63
2022/12/13 12:52:57;;;;;;;47.28;23.73;;;;;;;;;;5014496;28;94911;-62
2022/12/13 12:55:32;;;;;;;55.60;24.65;;;;;;;;;;5012823;28;93709;-63
2022/12/13 12:57:58;;;;;;;46.20;23.10;;;;;;;;;;5015365;28;92447;-63
2022/12/13 13:00:28;;;;;;;40.38;22.60;;;;;;;;;;5016312;28;93255;-63
2022/12/13 13:02:58;;;;;;;40.90;21.58;;;;;;;;;;4997136;28;93353;-63
2022/12/13 13:05:27;;;;;;;41.85;22.75;;;;;;;;;;4996516;28;92436;-63
2022/12/13 13:07:57;;;;;;;45.88;23.75;;;;;;;;;;4996429;28;94256;-63
2022/12/13 13:10:24;;;;;;;60.78;27.85;;;;;;;;;;4996549;28;92512;-62
2022/12/13 13:12:52;;;;;;;72.43;31.10;;;;;;;;;;4999243;28;92482;-64
2022/12/13 13:15:37;;;;;;;35.95;21.42;;;;;;;;;;5001734;28;93406;-63
2022/12/13 13:18:24;;;;;;;48.92;23.92;;;;;;;;;;5014569;28;94880;-63
2022/12/13 13:21:10;;;;;;;49.85;25.15;;;;;;;;;;5015550;28;96137;-63
2022/12/13 13:23:37;;;;;;;57.90;26.08;;;;;;;;;;5015667;28;93348;-63
2022/12/13 13:26:09;;;;;;;49.60;24.65;;;;;;;;;;5015741;28;92519;-63
2022/12/13 13:29:14;;;;;;;44.95;23.55;;;;;;;;;;5016124;28;92922;-63
2022/12/13 13:32:11;;;;;;;45.05;22.42;;;;;;;;;;5014552;28;93666;-62
2022/12/13 13:35:14;;;;;;;44.05;22.05;;;;;;;;;;5014914;28;92410;-62
2022/12/13 13:37:47;;;;;;;46.63;23.88;;;;;;;;;;5018728;28;93194;-62
2022/12/13 13:40:33;;;;;;;44.03;23.33;;;;;;;;;;5015418;28;92519;-63
2022/12/13 13:43:02;;;;;;;45.67;23.75;;;;;;;;;;5015813;28;93168;-63
2022/12/13 13:45:28;;;;;;;45.40;23.55;;;;;;;;;;5014133;28;96831;-63
2022/12/13 13:48:19;;;;;;;48.40;25.25;;;;;;;;;;5015626;28;92894;-63
2022/12/13 13:50:51;;;;;;;48.92;23.50;;;;;;;;;;5015715;28;94905;-63
2022/12/13 13:53:39;;;;;;;58.15;29.35;;;;;;;;;;5015627;28;93276;-62
2022/12/13 13:56:24;;;;;;;67.28;38.78;;;;;;;;;;5015752;28;92484;-63
2022/12/13 13:58:50;;;;;;;48.10;24.73;;;;;;;;;;5015266;28;93360;-62
2022/12/13 14:01:31;;;;;;;61.22;29.10;;;;;;;;;;5017007;28;93415;-63
2022/12/13 14:04:16;;;;;;;59.83;25.70;;;;;;;;;;5016088;28;93097;-63
2022/12/13 14:07:01;;;;;;;49.67;26.60;;;;;;;;;;5015481;28;94445;-62
2022/12/13 14:09:46;;;;;;;43.35;24.30;;;;;;;;;;5014999;28;92492;-63
2022/12/13 14:12:16;;;;;;;53.67;28.42;;;;;;;;;;5013878;28;94870;-64
2022/12/13 14:14:42;;;;;;;68.95;38.40;;;;;;;;;;5015311;28;93891;-63
2022/12/13 14:17:34;;;;;;;46.38;25.00;;;;;;;;;;5013846;28;92547;-63
2022/12/13 14:20:09;;;;;;;44.00;24.25;;;;;;;;;;5015411;28;94199;-63
2022/12/13 14:22:49;;;;;;;49.78;23.52;;;;;;;;;;5014706;28;93527;-63
2022/12/13 14:25:33;;;;;;;45.35;23.50;;;;;;;;;;5018787;28;92436;-63
2022/12/13 14:28:25;;;;;;;43.55;25.35;;;;;;;;;;5014989;28;94320;-63
2022/12/13 14:30:52;;;;;;;46.00;25.02;;;;;;;;;;5015535;28;91674;-62
2022/12/13 14:33:23;;;;;;;44.40;22.67;;;;;;;;;;5015195;28;92728;-62
2022/12/13 14:35:52;;;;;;;49.50;25.25;;;;;;;;;;5013571;28;94093;-62
2022/12/13 14:38:28;;;;;;;48.33;25.10;;;;;;;;;;5013338;28;95032;-62
2022/12/13 14:40:59;;;;;;;52.03;23.70;;;;;;;;;;5014917;28;95578;-62